createdAt,value
2023-05-20T00:01:22.330Z,56.36
2023-05-20T00:04:27.209Z,56.07
2023-05-20T00:07:32.872Z,55.96
2023-05-20T00:10:38.530Z,56.21
2023-05-20T00:13:42.596Z,56.59
2023-05-20T00:16:46.881Z,56.23
2023-05-20T00:19:51.399Z,55.91
2023-05-20T00:22:55.703Z,56.12
2023-05-20T00:26:00.826Z,55.87
2023-05-20T00:29:05.488Z,55.67
2023-05-20T00:32:09.473Z,55.49
2023-05-20T00:35:14.028Z,55.36
2023-05-20T00:38:17.906Z,55.37
2023-05-20T00:41:22.673Z,55.38
2023-05-20T00:44:27.493Z,55.12
2023-05-20T00:47:35.167Z,55.39
2023-05-20T00:50:40.297Z,54.89
2023-05-20T00:53:45.446Z,54.90
2023-05-20T00:56:49.769Z,54.97
2023-05-20T00:59:54.741Z,55.35
2023-05-20T01:02:58.836Z,55.16
2023-05-20T01:06:04.288Z,54.65
2023-05-20T01:09:08.776Z,53.93
2023-05-20T01:12:24.718Z,53.52
2023-05-20T01:15:29.718Z,53.00
2023-05-20T01:18:34.557Z,52.80
2023-05-20T01:21:39.552Z,52.73
2023-05-20T01:24:45.252Z,52.69
2023-05-20T01:27:51.048Z,52.99
2023-05-20T01:30:58.364Z,52.48
2023-05-20T01:34:03.416Z,52.84
2023-05-20T01:37:09.412Z,51.87
2023-05-20T01:40:16.484Z,51.36
2023-05-20T01:43:20.768Z,51.09
2023-05-20T01:46:24.729Z,50.42
2023-05-20T01:49:29.776Z,49.80
2023-05-20T01:52:35.004Z,49.72
2023-05-20T01:55:39.349Z,49.40
2023-05-20T01:58:43.324Z,49.20
2023-05-20T02:01:47.391Z,48.39
2023-05-20T02:04:54.667Z,47.47
2023-05-20T02:07:59.109Z,46.51
2023-05-20T02:11:03.185Z,45.93
2023-05-20T02:14:07.543Z,45.50
2023-05-20T02:17:11.570Z,45.13
2023-05-20T02:20:16.134Z,44.60
2023-05-20T02:23:20.378Z,44.28
2023-05-20T02:26:24.583Z,44.08
2023-05-20T02:29:28.604Z,43.92
2023-05-20T02:32:34.472Z,43.78
2023-05-20T02:35:40.168Z,43.95
2023-05-20T02:38:44.654Z,43.81
2023-05-20T02:41:48.584Z,44.11
2023-05-20T02:44:54.231Z,43.29
2023-05-20T02:47:58.477Z,43.68
2023-05-20T02:51:02.660Z,43.25
2023-05-20T02:54:07.301Z,43.62
2023-05-20T02:57:11.588Z,44.14
2023-05-20T03:00:15.771Z,43.78
2023-05-20T03:03:20.138Z,44.37
2023-05-20T03:06:24.578Z,44.88
2023-05-20T03:09:29.120Z,44.90
2023-05-20T03:12:33.038Z,44.82
2023-05-20T03:15:37.726Z,44.95
2023-05-20T03:18:41.911Z,44.80
2023-05-20T03:21:47.467Z,44.64
2023-05-20T03:24:53.536Z,44.95
2023-05-20T03:27:59.226Z,45.39
2023-05-20T03:31:04.831Z,46.15
2023-05-20T03:34:09.684Z,46.51
2023-05-20T03:37:13.801Z,46.57
2023-05-20T03:40:17.806Z,46.48
2023-05-20T03:43:25.945Z,46.45
2023-05-20T03:46:33.494Z,47.12
2023-05-20T03:49:37.691Z,47.34
2023-05-20T03:52:44.472Z,47.59
2023-05-20T03:55:51.293Z,47.31
2023-05-20T03:59:00.671Z,47.37
2023-05-20T04:02:09.263Z,47.30
2023-05-20T04:05:13.519Z,46.52
2023-05-20T04:08:19.594Z,44.41
2023-05-20T04:11:25.971Z,41.85
2023-05-20T04:14:33.766Z,42.34
2023-05-20T04:17:39.392Z,40.29
2023-05-20T04:20:44.273Z,39.10
2023-05-20T04:23:51.007Z,36.62
2023-05-20T04:26:55.468Z,36.38
2023-05-20T04:29:59.708Z,36.92
2023-05-20T04:33:05.180Z,36.96
2023-05-20T04:36:13.048Z,33.91
2023-05-20T04:39:35.884Z,35.93
2023-05-20T04:42:40.638Z,35.95
2023-05-20T04:45:44.531Z,35.34
2023-05-20T04:48:49.600Z,35.15
2023-05-20T04:51:56.028Z,35.42
2023-05-20T04:55:02.789Z,34.97
2023-05-20T04:58:08.901Z,34.91
2023-05-20T05:01:13.136Z,35.16
2023-05-20T05:04:21.719Z,34.83
2023-05-20T05:07:26.447Z,35.07
2023-05-20T05:10:32.457Z,37.12
2023-05-20T05:13:37.424Z,39.31
2023-05-20T05:16:41.304Z,40.33
2023-05-20T05:19:46.242Z,41.30
2023-05-20T05:22:51.722Z,41.95
2023-05-20T05:25:56.392Z,42.37
2023-05-20T05:29:01.071Z,42.71
2023-05-20T05:32:05.579Z,42.01
2023-05-20T05:35:09.987Z,40.82
2023-05-20T05:38:17.446Z,38.18
2023-05-20T05:41:22.363Z,37.25
2023-05-20T05:44:27.969Z,37.65
2023-05-20T05:47:33.414Z,38.20
2023-05-20T05:50:37.882Z,37.86
2023-05-20T05:53:41.896Z,38.18
2023-05-20T05:56:49.022Z,38.20
2023-05-20T05:59:53.062Z,39.27
2023-05-20T06:02:58.774Z,39.33
2023-05-20T06:06:09.323Z,39.95
2023-05-20T06:09:13.583Z,39.63
2023-05-20T06:12:18.193Z,40.05
2023-05-20T06:15:22.273Z,40.16
2023-05-20T06:18:26.454Z,40.19
2023-05-20T06:21:34.195Z,40.73
2023-05-20T06:24:38.779Z,40.97
2023-05-20T06:27:43.181Z,41.43
2023-05-20T06:30:50.605Z,42.28
2023-05-20T06:33:54.792Z,42.76
2023-05-20T06:36:58.838Z,43.70
2023-05-20T06:40:04.051Z,45.27
2023-05-20T06:43:11.220Z,45.78
2023-05-20T06:46:30.405Z,48.03
2023-05-20T06:49:41.967Z,49.25
2023-05-20T06:52:46.046Z,50.03
2023-05-20T06:55:51.915Z,49.47
2023-05-20T06:58:57.793Z,51.51
2023-05-20T07:02:03.033Z,55.46
2023-05-20T07:05:15.433Z,52.60
2023-05-20T07:08:19.569Z,52.64
2023-05-20T07:11:31.914Z,54.37
2023-05-20T07:14:37.021Z,59.71
2023-05-20T07:17:41.720Z,57.52
2023-05-20T07:20:46.235Z,59.36
2023-05-20T07:24:03.697Z,59.66
2023-05-20T07:27:10.253Z,60.27
2023-05-20T07:30:14.600Z,61.77
2023-05-20T07:33:24.031Z,62.43
2023-05-20T07:36:29.654Z,63.13
2023-05-20T07:39:39.319Z,63.91
2023-05-20T07:42:46.136Z,65.59
2023-05-20T07:45:54.506Z,63.82
2023-05-20T07:48:58.667Z,64.92
2023-05-20T07:52:04.116Z,65.82
2023-05-20T07:55:09.080Z,66.54
2023-05-20T07:58:15.219Z,67.11
2023-05-20T08:01:19.443Z,68.76
2023-05-20T08:04:24.022Z,71.00
2023-05-20T08:07:35.091Z,69.51
2023-05-20T08:10:39.096Z,69.19
2023-05-20T08:13:43.674Z,69.23
2023-05-20T08:16:49.134Z,67.89
2023-05-20T08:19:53.472Z,67.45
2023-05-20T08:22:57.389Z,67.60
2023-05-20T08:26:05.082Z,67.46
2023-05-20T08:29:13.572Z,67.32
2023-05-20T08:32:21.161Z,68.01
2023-05-20T08:35:31.467Z,68.13
2023-05-20T08:38:35.892Z,68.76
2023-05-20T08:41:40.582Z,68.67
2023-05-20T08:44:49.455Z,68.61
2023-05-20T08:47:55.427Z,69.31
2023-05-20T08:51:00.729Z,70.58
2023-05-20T08:54:04.927Z,70.39
2023-05-20T08:57:10.488Z,71.74
2023-05-20T09:00:19.188Z,77.59
2023-05-20T09:03:24.616Z,71.99
2023-05-20T09:06:28.335Z,72.69
2023-05-20T09:09:34.533Z,72.68
2023-05-20T09:12:42.260Z,72.98
2023-05-20T09:15:46.508Z,74.06
2023-05-20T09:18:53.126Z,75.06
2023-05-20T09:21:57.330Z,74.64
2023-05-20T09:25:01.563Z,74.40
2023-05-20T09:28:12.844Z,75.50
2023-05-20T09:31:16.856Z,75.45
2023-05-20T09:34:24.381Z,74.82
2023-05-20T09:37:29.778Z,74.53
2023-05-20T09:40:38.569Z,74.47
2023-05-20T09:43:43.494Z,74.75
2023-05-20T09:46:49.787Z,75.00
2023-05-20T09:49:54.577Z,74.78
2023-05-20T09:53:03.511Z,74.84
2023-05-20T09:56:07.784Z,75.77
2023-05-20T09:59:12.761Z,74.40
2023-05-20T10:02:19.051Z,74.95
2023-05-20T10:05:38.864Z,74.73
2023-05-20T10:09:00.835Z,73.62
2023-05-20T10:12:11.554Z,73.63
2023-05-20T10:15:25.865Z,72.68
2023-05-20T10:18:35.199Z,72.16
2023-05-20T10:21:39.516Z,71.63
2023-05-20T10:24:45.582Z,70.87
2023-05-20T10:27:49.773Z,70.43
2023-05-20T10:30:54.213Z,70.49
2023-05-20T10:34:02.080Z,70.70
2023-05-20T10:37:06.744Z,69.03
2023-05-20T10:40:16.218Z,69.69
2023-05-20T10:43:30.224Z,68.85
2023-05-20T10:46:51.444Z,69.02
2023-05-20T10:49:59.361Z,68.42
2023-05-20T10:53:29.278Z,66.75
2023-05-20T10:56:36.965Z,66.83
2023-05-20T10:59:43.424Z,65.93
2023-05-20T11:02:50.561Z,66.37
2023-05-20T11:05:54.517Z,66.19
2023-05-20T11:09:08.300Z,66.84
2023-05-20T11:12:12.805Z,66.97
2023-05-20T11:15:17.454Z,68.25
2023-05-20T11:18:23.413Z,68.00
2023-05-20T11:21:27.455Z,66.87
2023-05-20T11:24:33.459Z,66.34
2023-05-20T11:27:40.924Z,67.04
2023-05-20T11:30:45.019Z,67.45
2023-05-20T11:33:53.785Z,67.46
2023-05-20T11:36:59.251Z,67.58
2023-05-20T11:40:10.889Z,69.06
2023-05-20T11:43:16.195Z,70.16
2023-05-20T11:56:22.856Z,75.22
2023-05-20T11:59:30.283Z,77.40
2023-05-20T12:02:34.622Z,76.18
2023-05-20T12:05:45.093Z,77.43
2023-05-20T12:08:49.247Z,76.86
2023-05-20T12:11:56.633Z,76.89
2023-05-20T12:15:00.743Z,77.56
2023-05-20T12:18:08.390Z,78.60
2023-05-20T12:21:12.779Z,78.33
2023-05-20T12:24:19.020Z,78.37
2023-05-20T12:27:23.574Z,79.20
2023-05-20T12:30:30.459Z,79.49
2023-05-20T12:33:38.134Z,80.01
2023-05-20T12:36:42.185Z,79.60
2023-05-20T12:39:46.231Z,78.37
2023-05-20T12:42:50.157Z,79.38
2023-05-20T12:45:55.324Z,79.48
2023-05-20T12:48:59.153Z,80.38
2023-05-20T12:52:08.534Z,79.34
2023-05-20T12:55:15.907Z,81.22
2023-05-20T12:58:20.031Z,81.15
2023-05-20T13:01:24.001Z,81.37
2023-05-20T13:04:30.362Z,81.97
2023-05-20T13:07:34.407Z,81.93
2023-05-20T13:10:41.317Z,81.11
2023-05-20T13:13:45.272Z,82.83
2023-05-20T13:16:57.575Z,81.47
2023-05-20T13:20:03.381Z,80.45
2023-05-20T13:23:08.997Z,81.53
2023-05-20T13:26:14.246Z,82.45
2023-05-20T13:29:19.856Z,83.59
2023-05-20T13:32:23.857Z,83.79
2023-05-20T13:35:31.826Z,83.13
2023-05-20T13:38:37.423Z,82.45
2023-05-20T13:41:42.241Z,83.00
2023-05-20T13:44:46.384Z,83.76
2023-05-20T13:47:52.924Z,83.90
2023-05-20T13:50:56.889Z,85.75
2023-05-20T13:54:01.866Z,85.34
2023-05-20T13:57:11.651Z,84.73
2023-05-20T14:00:19.110Z,83.58
2023-05-20T14:03:23.177Z,85.08
2023-05-20T14:06:28.413Z,84.32
2023-05-20T14:09:32.318Z,84.94
2023-05-20T14:12:36.386Z,85.91
2023-05-20T14:15:40.405Z,87.59
2023-05-20T14:18:44.787Z,86.04
2023-05-20T14:21:48.814Z,85.72
2023-05-20T14:24:55.622Z,86.16
2023-05-20T14:27:59.512Z,85.39
2023-05-20T14:31:03.845Z,85.07
2023-05-20T14:34:07.806Z,84.73
2023-05-20T14:37:12.926Z,85.77
2023-05-20T14:40:17.330Z,86.45
2023-05-20T14:43:22.282Z,86.01
2023-05-20T14:46:26.274Z,86.17
2023-05-20T14:49:33.751Z,87.09
2023-05-20T14:52:37.696Z,87.86
2023-05-20T14:55:44.753Z,88.06
2023-05-20T14:58:48.705Z,87.37
2023-05-20T15:01:52.798Z,87.76
2023-05-20T15:04:58.598Z,88.57
2023-05-20T15:08:02.291Z,88.42
2023-05-20T15:11:06.159Z,88.31
2023-05-20T15:14:11.274Z,88.79
2023-05-20T15:17:18.054Z,88.91
2023-05-20T15:20:22.452Z,88.65
2023-05-20T15:23:27.135Z,89.24
2023-05-20T15:26:37.205Z,88.99
2023-05-20T15:29:44.325Z,88.67
2023-05-20T15:32:50.121Z,89.46
2023-05-20T15:35:54.081Z,90.88
2023-05-20T15:38:58.217Z,90.92
2023-05-20T15:42:03.660Z,90.59
2023-05-20T15:45:08.157Z,89.39
2023-05-20T15:48:15.349Z,88.95
2023-05-20T15:51:19.757Z,88.82
2023-05-20T15:54:23.779Z,87.99
2023-05-20T15:57:27.881Z,88.33
2023-05-20T16:00:32.231Z,88.22
2023-05-20T16:03:41.540Z,88.96
2023-05-20T16:06:48.208Z,88.23
2023-05-20T16:09:52.401Z,86.72
2023-05-20T16:12:56.390Z,87.35
2023-05-20T16:16:09.748Z,87.74
2023-05-20T16:19:14.497Z,87.28
2023-05-20T16:22:19.835Z,88.29
2023-05-20T16:25:23.946Z,86.92
2023-05-20T16:28:28.028Z,87.56
2023-05-20T16:31:31.939Z,88.03
2023-05-20T16:34:36.144Z,87.24
2023-05-20T16:37:40.618Z,87.71
2023-05-20T16:40:44.872Z,88.26
2023-05-20T16:43:48.793Z,87.64
2023-05-20T16:46:54.141Z,87.69
2023-05-20T16:49:58.316Z,88.15
2023-05-20T16:53:02.725Z,87.84
2023-05-20T16:56:09.691Z,87.75
2023-05-20T16:59:15.593Z,87.65
2023-05-20T17:02:19.445Z,87.57
2023-05-20T17:05:23.981Z,87.52
2023-05-20T17:08:28.431Z,87.36
2023-05-20T17:11:32.404Z,86.03
2023-05-20T17:14:37.677Z,86.35
2023-05-20T17:17:42.027Z,86.22
2023-05-20T17:21:11.161Z,85.96
2023-05-20T17:24:16.887Z,86.75
2023-05-20T17:27:21.112Z,86.69
2023-05-20T17:30:25.274Z,87.20
2023-05-20T17:33:29.305Z,88.07
2023-05-20T17:36:33.597Z,87.98
2023-05-20T17:39:38.183Z,86.58
2023-05-20T17:42:42.391Z,87.93
2023-05-20T17:45:46.574Z,87.67
2023-05-20T17:48:50.909Z,88.48
2023-05-20T17:51:57.232Z,88.76
2023-05-20T17:55:03.323Z,87.72
2023-05-20T17:58:09.946Z,88.11
2023-05-20T18:01:14.064Z,87.56
2023-05-20T18:04:20.134Z,87.43
2023-05-20T18:07:24.318Z,87.90
2023-05-20T18:10:31.298Z,88.38
2023-05-20T18:13:35.380Z,88.59
2023-05-20T18:16:39.471Z,89.45
2023-05-20T18:19:43.653Z,89.13
2023-05-20T18:27:03.418Z,89.45
2023-05-20T18:30:08.911Z,88.54
2023-05-20T18:33:16.709Z,88.35
2023-05-20T18:36:23.521Z,88.30
2023-05-20T18:39:27.912Z,87.88
2023-05-20T18:42:33.468Z,89.51
2023-05-20T18:45:37.645Z,89.52
2023-05-20T18:48:41.648Z,88.92
2023-05-20T18:51:46.098Z,89.19
2023-05-20T18:54:50.813Z,88.14
2023-05-20T18:57:55.402Z,87.85
2023-05-20T19:00:59.587Z,87.88
2023-05-20T19:04:03.942Z,88.31
2023-05-20T19:07:07.931Z,89.66
2023-05-20T19:10:12.623Z,88.88
2023-05-20T19:13:16.678Z,88.31
2023-05-20T19:16:24.159Z,87.27
2023-05-20T19:19:28.260Z,88.30
2023-05-20T19:22:40.341Z,88.80
2023-05-20T19:25:44.952Z,88.90
2023-05-20T19:28:49.176Z,88.88
2023-05-20T19:31:53.078Z,90.39
2023-05-20T19:34:57.263Z,89.26
2023-05-20T19:38:05.615Z,89.25
2023-05-20T19:41:11.416Z,89.11
2023-05-20T19:44:17.976Z,89.31
2023-05-20T19:47:22.668Z,89.46
2023-05-20T19:50:27.337Z,89.36
2023-05-20T19:53:31.472Z,89.59
2023-05-20T19:56:35.422Z,90.47
2023-05-20T19:59:39.741Z,89.81
2023-05-20T20:02:49.439Z,89.08
2023-05-20T20:05:53.972Z,90.02
2023-05-20T20:08:58.102Z,90.50
2023-05-20T20:12:05.033Z,89.93
2023-05-20T20:15:09.788Z,89.85
2023-05-20T20:18:22.259Z,89.78
2023-05-20T20:21:29.746Z,89.82
2023-05-20T20:24:33.843Z,89.40
2023-05-20T20:27:40.528Z,90.06
2023-05-20T20:30:45.251Z,90.13
2023-05-20T20:33:49.832Z,89.80
2023-05-20T20:36:55.705Z,89.68
2023-05-20T20:39:59.509Z,90.89
2023-05-20T20:43:05.803Z,90.12
2023-05-20T20:46:12.068Z,90.60
2023-05-20T20:49:16.303Z,89.99
2023-05-20T20:52:20.695Z,89.01
2023-05-20T20:55:25.166Z,88.76
2023-05-20T20:58:29.113Z,88.51
2023-05-20T21:01:37.027Z,88.91
2023-05-20T21:04:43.290Z,89.58
2023-05-20T21:07:50.702Z,88.73
2023-05-20T21:11:01.114Z,88.43
2023-05-20T21:14:05.953Z,88.65
2023-05-20T21:17:10.623Z,87.80
2023-05-20T21:20:16.261Z,87.53
2023-05-20T21:23:22.834Z,87.69
2023-05-20T21:26:27.450Z,88.71
2023-05-20T21:29:32.094Z,88.15
2023-05-20T21:32:36.238Z,87.78
2023-05-20T21:35:40.162Z,87.93
2023-05-20T21:38:44.231Z,87.01
2023-05-20T21:41:48.446Z,87.52
2023-05-20T21:44:52.582Z,86.91
2023-05-20T21:47:56.581Z,86.45
2023-05-20T21:51:00.676Z,86.02
2023-05-20T21:54:04.932Z,85.76
2023-05-20T21:57:08.975Z,86.44
2023-05-20T22:00:15.744Z,86.34
2023-05-20T22:03:20.390Z,87.08
2023-05-20T22:06:24.623Z,86.02
2023-05-20T22:09:28.896Z,86.27
2023-05-20T22:12:32.825Z,85.60
2023-05-20T22:15:37.228Z,84.58
2023-05-20T22:18:42.175Z,84.60
2023-05-20T22:21:50.771Z,84.16
2023-05-20T22:24:55.185Z,84.55
2023-05-20T22:27:59.234Z,84.11
2023-05-20T22:31:03.213Z,84.09
2023-05-20T22:34:07.649Z,84.91
2023-05-20T22:37:13.027Z,84.15
2023-05-20T22:40:19.935Z,83.78
2023-05-20T22:43:24.421Z,83.71
2023-05-20T22:46:28.520Z,83.13
2023-05-20T22:49:33.342Z,83.35
2023-05-20T22:52:37.823Z,83.75
2023-05-20T22:55:42.115Z,82.66
2023-05-20T22:58:46.599Z,82.56
2023-05-20T23:01:50.689Z,81.73
2023-05-20T23:04:58.050Z,80.12
2023-05-20T23:08:04.386Z,80.82
2023-05-20T23:11:08.979Z,79.54
2023-05-20T23:14:12.954Z,78.84
2023-05-20T23:17:16.975Z,78.69
2023-05-20T23:20:23.014Z,79.41
2023-05-20T23:23:31.047Z,79.48
2023-05-20T23:26:38.245Z,78.70
2023-05-20T23:29:43.046Z,77.63
2023-05-20T23:32:47.155Z,77.56
2023-05-20T23:35:51.622Z,77.54
2023-05-20T23:38:56.799Z,76.86
2023-05-20T23:42:01.297Z,75.75
2023-05-20T23:45:06.105Z,76.09
2023-05-20T23:48:14.166Z,76.33
2023-05-20T23:51:18.065Z,75.21
2023-05-20T23:54:23.706Z,76.45
2023-05-20T23:57:28.175Z,76.29
